Hovedside
METAR-TAF:

METAR-TAF

Lufthavner :

Denpasar, Indonesia

breddegrad: 08-44-53S, lengdegrad: 115-10-03E, høyde over havet: 4 m

Gjeldene værobservasjon

Denne rapporten ble laget for 30 minutter siden, klokken 13:00 UTC
Vind 17 kt fra Sørøst
Temperatur 27°C
Luftfuktighet 84%
Trykk 1012 hPa
Sikt 10 km eller mer
Få skyer i en høyde av 1700 ft

METAR: WADD 221300Z 13017KT 9999 FEW017 27/24 Q1012 NOSIG

Tid: 20:30 (13:30 UTC)

Varsel

Denne rapporten ble laget for 2 timer og 30 minutter siden, klokken 11:00 UTC
Varsel gyldig fra 22. klokken 12 UTC til 23. klokken 12 UTC
Vind 14 kt fra Øst-sørøst
Sikt 10 km eller mer
Spredte skyer i en høyde av 1700 ft
Midlertidig
fra 22. klokken 20 UTC til 23. klokken 00 UTC
Sikt: 6000 m
Brutte skyer i en høyde av 1400 ft
lett regn,

TAF: WADD 221100Z 2212/2312 12014KT 9999 SCT017 TEMPO 2220/2300 6000 -RA BKN014

Værobservasjoner og værvarsel for over 4000 flyplasser (METAR- og TAF-rapporter).

Tilgjengelige stasjoner er representert av de røde og gule prikkene på kartet.

Hold musepekeren over prikken for å se navnet på stasjonen.

Klikk så for å se værobservasjoner og -varsler.

For å forandre kartet kan du klikke på den grønne knappen med svart kryss for å zoome inn, på den grønne knappen med strek for å zoome ut, eller på de grønne pilene for å se tilstøtende kart.


METAR-TAF: